Aeroporto :
LOGIN :

Iscrizione | Disclaimer

   EN    FR    IT 

 










Sommario :    VFR   VFR Marginale   IFR   IFR Intensivo   IFR Molto Intensivo
Visibilità : 
Base nubi : 
>= 8 km
>= 3000ft
5 / 8 km
1000 / 3000 ft
1500m / 5 km
500 / 1000 ft
800 / 1500m
200 / 500 ft
< 800m
< 200 ft
Simboli :   Temporali  Nebbia  Neve Forte  Precipitazioni Forti  Vento > 20 kt
SIGMETs :   Varie  Temporali  Ghiacco  Turbolenza  Onda orograficha  Ceneri Vulcaniche






- Altitudine del aeroporto : 20 ft


EBFN - Koksijde

ULTIMO METAR :
  • 220440Z 08006KT 7000 -DZRA FEW020 SCT040 OVC065 13/11 Q1015 WHT BLU TEMPO WHT

METARs OBSOLETI :
  • 220425Z AUTO 08006KT 9999 -RA FEW039/// OVC066/// 13/11 Q1016 BLU
  • 220355Z AUTO 06007KT 9999 FEW036/// OVC065/// 14/11 Q1015 BLU
  • 220325Z AUTO 05008KT 9999 OVC064/// 14/11 Q1015 BLU
  • 220255Z AUTO 05011KT 9999 OVC063/// 14/11 Q1015 BLU
  • 220225Z AUTO 05010KT 9999 OVC061/// 14/11 Q1015 BLU
  • 220155Z AUTO 05011KT 9999 OVC061/// 14/11 Q1014 BLU

TAF TAF EBFN
Valido dal 21 a 19 ore il 22 a 07 ore UTC


211541Z 2119/2207 03015G25KT 9999 BKN015
TEMPO 2119/2207 05020G30KT 5000 RA OVC010



MetMap, La meteo Aeronautica in un colpo d'occhio ! - Copyright ORBIFLY Dicembre 2007 - Disclaimer

ORBIFLY MET'MAP TEAM :

Programmazione e sviluppo : Alexandra Zaïnal
Concezione : Baudouin d'Aumeries
Aiuto per la programmazione : Marc-Olivier Méhu
Supporto tecnico e logistico : Manuel Goepfert
Aiuto per la traduzione : Arnaldo La Scala

Contatto : metmap@orbifly.com




FONTI E CREDITI :

   NOAA